Time;durP1;ratioP1;P1;durP2;ratioP2;P2;SDS_P1;SDS_P2;PMS_P1;PMS_P2;Temp;Humidity;BMP_temperature;BMP_pressure;BME280_temperature;BME280_humidity;BME280_pressure;Samples;Min_cycle;Max_cycle;Signal;HPM_P1;HPM_P2
2023/01/10 00:02:02;;;;;;;29.30;11.98;;;6.80;99.90;;;;;;5083928;28;20030;-71
2023/01/10 00:04:29;;;;;;;26.73;10.55;;;6.80;99.90;;;;;;5088601;28;20029;-72
2023/01/10 00:06:55;;;;;;;28.08;10.20;;;6.80;99.90;;;;;;5087609;28;20094;-72
2023/01/10 00:09:21;;;;;;;33.83;9.85;;;6.90;99.90;;;;;;5089606;28;20529;-71
2023/01/10 00:14:34;;;;;;;23.13;8.30;;;6.90;99.90;;;;;;5103116;27;20506;-71
2023/01/10 00:17:03;;;;;;;24.88;9.10;;;6.80;99.90;;;;;;5088402;28;20054;-72
2023/01/10 00:19:30;;;;;;;21.95;8.43;;;6.80;99.90;;;;;;5104915;27;20032;-72
2023/01/10 00:22:06;;;;;;;18.77;9.27;;;6.80;99.90;;;;;;5084039;28;20027;-72
2023/01/10 00:24:32;;;;;;;27.10;9.02;;;6.80;99.90;;;;;;5086597;28;20032;-72
2023/01/10 00:26:58;;;;;;;25.92;8.65;;;6.80;99.90;;;;;;5084421;28;20081;-71
2023/01/10 00:29:28;;;;;;;22.63;8.38;;;6.80;99.90;;;;;;5090228;27;20041;-72
2023/01/10 00:31:54;;;;;;;26.15;8.25;;;6.80;99.90;;;;;;5095775;28;20448;-76
2023/01/10 00:34:20;;;;;;;22.83;8.40;;;6.80;99.90;;;;;;5117233;27;20023;-77
2023/01/10 00:36:48;;;;;;;22.80;7.82;;;6.80;99.90;;;;;;5087293;28;20047;-77
2023/01/10 00:39:15;;;;;;;19.38;9.13;;;6.80;99.90;;;;;;5103243;27;20055;-76
2023/01/10 00:44:26;;;;;;;18.40;7.68;;;6.80;99.90;;;;;;5104543;28;20027;-75
2023/01/10 00:46:52;;;;;;;24.30;8.80;;;6.80;99.90;;;;;;5090574;28;20049;-75
2023/01/10 00:49:18;;;;;;;32.80;9.05;;;6.80;99.90;;;;;;5092038;28;20039;-76
2023/01/10 00:51:44;;;;;;;26.85;8.60;;;6.80;99.90;;;;;;5072178;28;20024;-79
2023/01/10 00:54:11;;;;;;;18.95;7.68;;;6.90;99.90;;;;;;5087744;28;20028;-76
2023/01/10 00:56:39;;;;;;;30.27;8.23;;;6.90;99.90;;;;;;5093875;28;20058;-79
2023/01/10 00:59:05;;;;;;;26.48;7.50;;;6.90;99.90;;;;;;5108338;27;20024;-76
2023/01/10 01:01:32;;;;;;;20.63;7.47;;;6.80;99.90;;;;;;5105093;27;20028;-76
2023/01/10 01:03:59;;;;;;;21.70;7.30;;;6.80;99.90;;;;;;5089445;28;20028;-76
2023/01/10 01:06:25;;;;;;;22.38;7.32;;;6.80;99.90;;;;;;5106442;28;20957;-79
2023/01/10 01:08:50;;;;;;;24.05;7.32;;;6.70;99.90;;;;;;5107820;28;20380;-77
2023/01/10 01:11:16;;;;;;;23.95;7.00;;;6.70;99.90;;;;;;5105319;27;20049;-77
2023/01/10 01:13:43;;;;;;;22.02;7.20;;;6.70;99.90;;;;;;5107369;27;20027;-75
2023/01/10 01:16:09;;;;;;;22.40;7.32;;;6.70;99.90;;;;;;5087127;28;20027;-76
2023/01/10 01:18:34;;;;;;;23.33;6.60;;;6.70;99.90;;;;;;5108591;27;20038;-79
2023/01/10 01:21:02;;;;;;;14.70;6.45;;;6.70;99.90;;;;;;5102322;28;20099;-81
2023/01/10 01:23:29;;;;;;;18.52;7.03;;;6.60;99.90;;;;;;5104229;28;20020;-77
2023/01/10 01:25:56;;;;;;;16.17;7.25;;;6.60;99.90;;;;;;5106917;28;20142;-77
2023/01/10 01:28:22;;;;;;;25.27;7.45;;;6.60;99.90;;;;;;5087114;28;20023;-75
2023/01/10 01:30:48;;;;;;;21.15;7.40;;;6.50;99.90;;;;;;5106013;28;20078;-77
2023/01/10 01:33:14;;;;;;;31.63;7.63;;;6.50;99.90;;;;;;5106621;28;20062;-75
2023/01/10 01:35:44;;;;;;;19.00;7.38;;;6.40;99.90;;;;;;5107126;28;20081;-78
2023/01/10 01:38:10;;;;;;;23.33;8.38;;;6.40;99.90;;;;;;5087944;28;20499;-76
2023/01/10 01:40:37;;;;;;;25.83;8.35;;;6.40;99.90;;;;;;5107607;27;20032;-78
2023/01/10 01:43:04;;;;;;;24.20;7.15;;;6.40;99.90;;;;;;5104409;28;20039;-79
2023/01/10 01:45:35;;;;;;;23.70;7.90;;;6.40;99.90;;;;;;5085710;28;20024;-75
2023/01/10 01:48:10;;;;;;;17.35;6.65;;;6.40;99.90;;;;;;5106156;28;20034;-76
2023/01/10 01:50:42;;;;;;;18.83;7.18;;;6.40;99.90;;;;;;5106160;28;20080;-76
2023/01/10 01:53:33;;;;;;;22.58;7.00;;;6.40;99.90;;;;;;5088302;28;20542;-77
2023/01/10 01:56:14;;;;;;;20.73;7.47;;;6.40;99.90;;;;;;5088749;28;20066;-75
2023/01/10 01:58:51;;;;;;;22.73;8.13;;;6.40;99.90;;;;;;5072476;28;20072;-76
2023/01/10 02:01:18;;;;;;;15.02;7.25;;;6.40;99.90;;;;;;5088256;28;20125;-77
2023/01/10 02:03:48;;;;;;;18.30;7.28;;;6.40;99.90;;;;;;5089907;28;20032;-77
2023/01/10 02:06:17;;;;;;;23.00;7.40;;;6.40;99.90;;;;;;5106673;28;20047;-76
2023/01/10 02:08:51;;;;;;;22.30;7.72;;;6.40;99.90;;;;;;5108142;28;20050;-76
2023/01/10 02:11:17;;;;;;;16.60;7.20;;;6.40;99.90;;;;;;5109017;28;20061;-75
2023/01/10 02:13:44;;;;;;;19.35;7.05;;;6.40;99.90;;;;;;5098245;28;20067;-79
2023/01/10 02:16:11;;;;;;;24.55;7.82;;;6.40;99.90;;;;;;5111849;28;20032;-76
2023/01/10 02:18:39;;;;;;;19.85;8.00;;;6.40;99.90;;;;;;5095186;28;20023;-77
2023/01/10 02:21:20;;;;;;;17.20;7.13;;;6.40;99.90;;;;;;5092442;28;20016;-78
2023/01/10 02:24:15;;;;;;;22.65;7.38;;;6.40;99.90;;;;;;5070922;28;20201;-77
2023/01/10 02:27:01;;;;;;;21.02;7.97;;;6.40;99.90;;;;;;5078956;28;20097;-77
2023/01/10 02:29:38;;;;;;;17.35;8.05;;;6.40;99.90;;;;;;5105099;28;20383;-76
2023/01/10 02:32:34;;;;;;;24.15;7.80;;;6.40;99.90;;;;;;5108020;28;20023;-78
2023/01/10 02:35:09;;;;;;;22.23;7.22;;;6.40;99.90;;;;;;5115767;28;20019;-77
2023/01/10 02:37:50;;;;;;;21.02;7.57;;;6.40;99.90;;;;;;5110818;28;20070;-72
2023/01/10 02:40:42;;;;;;;20.00;7.97;;;6.40;99.90;;;;;;5109885;28;20055;-71
2023/01/10 02:43:14;;;;;;;20.02;7.65;;;6.40;99.90;;;;;;5108562;28;20039;-72
2023/01/10 02:45:58;;;;;;;19.67;8.00;;;6.40;99.90;;;;;;5109466;28;20038;-73
2023/01/10 02:48:24;;;;;;;21.73;8.10;;;6.40;99.90;;;;;;5092510;28;20055;-72
2023/01/10 02:50:52;;;;;;;19.73;7.55;;;6.40;99.90;;;;;;5108572;28;20066;-72
2023/01/10 02:53:24;;;;;;;25.13;8.73;;;6.40;99.90;;;;;;5084993;28;20035;-72
2023/01/10 02:55:49;;;;;;;30.73;8.07;;;6.40;99.90;;;;;;5091176;28;20081;-72
2023/01/10 02:58:24;;;;;;;15.60;6.97;;;6.40;99.90;;;;;;5108614;28;20628;-72
2023/01/10 03:01:25;;;;;;;19.42;6.90;;;6.40;99.90;;;;;;5107116;28;20717;-72
2023/01/10 03:04:07;;;;;;;23.73;7.50;;;6.30;99.90;;;;;;5092758;28;20111;-72
2023/01/10 03:06:45;;;;;;;16.27;6.28;;;6.30;99.90;;;;;;5091127;28;20027;-71
2023/01/10 03:09:28;;;;;;;24.13;7.00;;;6.30;99.90;;;;;;5105577;27;20028;-71
2023/01/10 03:12:05;;;;;;;18.85;6.85;;;6.30;99.90;;;;;;5091471;28;20027;-72
2023/01/10 03:14:32;;;;;;;18.95;6.57;;;6.30;99.90;;;;;;5086925;28;20043;-71
2023/01/10 03:17:03;;;;;;;19.98;8.05;;;6.40;99.90;;;;;;5093739;28;20030;-71
2023/01/10 03:19:34;;;;;;;17.27;7.33;;;6.40;99.90;;;;;;5089980;28;20081;-71
2023/01/10 03:22:00;;;;;;;;;;;6.40;99.90;;;;;;5075748;28;20051;-72
2023/01/10 03:24:33;;;;;;;14.23;6.82;;;6.30;99.90;;;;;;5107745;28;19937;-71
2023/01/10 03:27:08;;;;;;;20.20;6.00;;;6.30;99.90;;;;;;5089339;28;20032;-71
2023/01/10 03:29:44;;;;;;;18.50;6.30;;;6.30;99.90;;;;;;5106328;27;20542;-72
2023/01/10 03:32:12;;;;;;;15.43;6.70;;;6.30;99.90;;;;;;5107800;27;20042;-72
2023/01/10 03:34:39;;;;;;;19.30;6.65;;;6.20;99.90;;;;;;5092683;28;20028;-72
2023/01/10 03:37:11;;;;;;;15.93;5.70;;;6.20;99.90;;;;;;5086684;28;20023;-72
2023/01/10 03:40:04;;;;;;;23.20;6.85;;;6.10;99.90;;;;;;5090541;28;20483;-72
2023/01/10 03:45:36;;;;;;;19.15;5.90;;;6.10;99.90;;;;;;5090383;28;20114;-72
2023/01/10 03:48:04;;;;;;;16.38;6.53;;;6.00;99.90;;;;;;5087673;28;20489;-71
2023/01/10 03:50:31;;;;;;;16.77;6.45;;;6.00;99.90;;;;;;5091151;28;20142;-71
2023/01/10 03:52:58;;;;;;;15.18;5.78;;;6.00;99.90;;;;;;5087771;27;20028;-71
2023/01/10 03:55:26;;;;;;;17.23;6.55;;;6.00;99.90;;;;;;5108734;28;20227;-71
2023/01/10 03:57:52;;;;;;;14.50;5.68;;;5.90;99.90;;;;;;5085237;28;20035;-72
2023/01/10 04:00:19;;;;;;;13.07;5.45;;;5.90;99.90;;;;;;5109777;28;20138;-72
2023/01/10 04:02:44;;;;;;;16.20;6.60;;;5.80;99.90;;;;;;5090012;28;20106;-72
2023/01/10 04:05:11;;;;;;;15.15;5.15;;;5.90;99.90;;;;;;5109811;27;20388;-72
2023/01/10 04:07:37;;;;;;;16.40;5.70;;;5.90;99.90;;;;;;5107280;28;20518;-72
2023/01/10 04:10:04;;;;;;;14.63;5.80;;;5.80;99.90;;;;;;5105987;28;20027;-72
2023/01/10 04:12:30;;;;;;;15.95;5.57;;;5.90;99.90;;;;;;5107254;28;20028;-71
2023/01/10 04:14:56;;;;;;;21.48;6.25;;;5.80;99.90;;;;;;5112730;27;20550;-72
2023/01/10 04:17:21;;;;;;;17.23;5.10;;;5.80;99.90;;;;;;5120645;27;20024;-72
2023/01/10 04:19:47;;;;;;;18.10;5.40;;;5.80;99.90;;;;;;5093276;28;20106;-72
2023/01/10 04:22:14;;;;;;;14.27;4.82;;;5.80;99.90;;;;;;5088493;28;20105;-70
2023/01/10 04:24:40;;;;;;;17.40;5.53;;;5.80;99.90;;;;;;5090247;28;20476;-71
2023/01/10 04:27:06;;;;;;;13.82;4.68;;;5.80;99.90;;;;;;5088545;28;20067;-73
2023/01/10 04:29:31;;;;;;;18.40;5.88;;;5.80;99.90;;;;;;5090416;28;20074;-71
2023/01/10 04:31:57;;;;;;;12.15;4.45;;;5.80;99.90;;;;;;5090492;28;20106;-72
2023/01/10 04:34:23;;;;;;;17.83;5.03;;;5.70;99.90;;;;;;5105619;28;20043;-71
2023/01/10 04:36:49;;;;;;;18.77;5.13;;;5.70;99.90;;;;;;5090339;28;20024;-72
2023/01/10 04:39:15;;;;;;;13.32;4.18;;;5.70;99.90;;;;;;5083858;28;20016;-71
2023/01/10 04:41:41;;;;;;;15.05;4.43;;;5.70;99.90;;;;;;5068037;28;20542;-71
2023/01/10 04:44:07;;;;;;;16.40;5.35;;;5.70;99.90;;;;;;5090716;28;20050;-72
2023/01/10 04:46:33;;;;;;;10.80;4.22;;;5.70;99.90;;;;;;5107856;28;20102;-71
2023/01/10 04:48:59;;;;;;;15.00;4.45;;;5.80;99.90;;;;;;5106350;27;20114;-71
2023/01/10 04:51:26;;;;;;;13.70;4.20;;;5.80;99.90;;;;;;5088816;27;20024;-71
2023/01/10 04:53:52;;;;;;;14.35;4.40;;;5.90;99.90;;;;;;5105620;28;20051;-72
2023/01/10 04:56:20;;;;;;;12.00;4.30;;;5.90;99.90;;;;;;5086500;28;20055;-71
2023/01/10 04:58:46;;;;;;;13.57;4.68;;;5.90;99.90;;;;;;5105469;28;20043;-71
2023/01/10 05:01:19;;;;;;;19.85;4.53;;;5.90;99.90;;;;;;5086392;28;20111;-71
2023/01/10 05:03:51;;;;;;;21.77;4.63;;;5.90;99.90;;;;;;5107018;28;20773;-71
2023/01/10 05:06:17;;;;;;;12.90;4.18;;;5.90;99.90;;;;;;5088036;28;20038;-71
2023/01/10 05:08:44;;;;;;;15.82;3.78;;;6.00;99.90;;;;;;5104774;28;20046;-71
2023/01/10 05:11:10;;;;;;;16.85;4.68;;;6.00;99.90;;;;;;5087358;28;20106;-72
2023/01/10 05:13:35;;;;;;;13.57;3.75;;;6.00;99.90;;;;;;5085445;28;20047;-72
2023/01/10 05:16:01;;;;;;;13.68;4.00;;;6.00;99.90;;;;;;5086213;28;20023;-72
2023/01/10 05:18:28;;;;;;;15.32;3.67;;;6.00;99.90;;;;;;5086208;28;20051;-72
2023/01/10 05:21:06;;;;;;;12.43;3.55;;;6.10;99.90;;;;;;5105106;28;20108;-72
2023/01/10 05:23:31;;;;;;;11.80;3.83;;;6.10;99.90;;;;;;5103712;28;20035;-72
2023/01/10 05:26:03;;;;;;;12.50;4.55;;;6.10;99.90;;;;;;5085819;28;20117;-72
2023/01/10 05:28:29;;;;;;;14.98;3.92;;;6.00;99.90;;;;;;5100382;28;20039;-72
2023/01/10 05:30:55;;;;;;;13.60;3.40;;;6.10;99.90;;;;;;5085771;28;20028;-72
2023/01/10 05:33:20;;;;;;;13.93;5.05;;;6.10;99.90;;;;;;5104218;28;20031;-72
2023/01/10 05:35:46;;;;;;;11.25;3.60;;;6.00;99.90;;;;;;5107138;27;20116;-71
2023/01/10 05:38:12;;;;;;;11.40;3.20;;;6.10;99.90;;;;;;5105560;28;20051;-72
2023/01/10 05:40:38;;;;;;;15.93;4.15;;;6.00;99.90;;;;;;5103160;27;20028;-72
2023/01/10 05:43:03;;;;;;;14.90;3.30;;;6.10;99.90;;;;;;5100925;28;20023;-72
2023/01/10 05:45:29;;;;;;;19.83;3.72;;;6.10;99.90;;;;;;5101033;28;20035;-71
2023/01/10 05:47:55;;;;;;;13.90;3.55;;;6.00;99.90;;;;;;5081452;28;20039;-71
2023/01/10 05:50:20;;;;;;;19.40;3.95;;;6.00;99.90;;;;;;5097342;28;20099;-71
2023/01/10 05:52:46;;;;;;;20.08;4.20;;;5.90;99.90;;;;;;5081007;28;20538;-73
2023/01/10 05:55:12;;;;;;;14.27;3.13;;;5.90;99.90;;;;;;5082100;28;21167;-71
2023/01/10 05:57:38;;;;;;;12.38;3.30;;;5.90;99.90;;;;;;5107418;28;20363;-71
2023/01/10 06:00:05;;;;;;;12.30;3.20;;;5.90;99.90;;;;;;5083789;28;20608;-71
2023/01/10 06:02:31;;;;;;;16.67;4.25;;;5.80;99.90;;;;;;5080729;28;20025;-71
2023/01/10 06:04:57;;;;;;;17.70;4.50;;;5.80;99.90;;;;;;5087100;28;20035;-72
2023/01/10 06:07:23;;;;;;;17.40;3.72;;;5.80;99.90;;;;;;5105735;28;20270;-70
2023/01/10 06:09:50;;;;;;;15.73;3.53;;;5.70;99.90;;;;;;5101323;28;20030;-71
2023/01/10 06:12:19;;;;;;;17.80;3.42;;;5.80;99.90;;;;;;5089477;28;20031;-71
2023/01/10 06:14:45;;;;;;;14.18;4.05;;;5.70;99.90;;;;;;5092423;28;20636;-71
2023/01/10 06:17:10;;;;;;;15.82;3.70;;;5.70;99.90;;;;;;5107141;28;20023;-71
2023/01/10 06:19:36;;;;;;;15.40;3.58;;;5.70;99.90;;;;;;5113646;27;20031;-71
2023/01/10 06:22:03;;;;;;;15.98;3.40;;;5.70;99.90;;;;;;5112053;27;20030;-71
2023/01/10 06:24:29;;;;;;;14.00;4.10;;;5.70;99.90;;;;;;5092992;28;20039;-71
2023/01/10 06:26:54;;;;;;;20.48;3.80;;;5.70;99.90;;;;;;5111362;27;20027;-72
2023/01/10 06:29:20;;;;;;;12.25;3.50;;;5.60;99.90;;;;;;5090678;28;20446;-71
2023/01/10 06:31:46;;;;;;;15.93;3.95;;;5.60;99.90;;;;;;5088110;28;20398;-72
2023/01/10 06:34:11;;;;;;;24.13;4.25;;;5.60;99.90;;;;;;5089901;28;20660;-72
2023/01/10 06:36:37;;;;;;;19.30;4.13;;;5.60;99.90;;;;;;5107404;27;20127;-72
2023/01/10 06:39:03;;;;;;;9.45;3.38;;;5.60;99.90;;;;;;5084487;28;20041;-72
2023/01/10 06:41:29;;;;;;;21.48;4.45;;;5.70;99.90;;;;;;5111787;27;20058;-71
2023/01/10 06:43:54;;;;;;;14.38;4.03;;;5.70;99.90;;;;;;5115802;28;20055;-71
2023/01/10 06:46:20;;;;;;;17.50;3.88;;;5.60;99.90;;;;;;5079507;28;20415;-73
2023/01/10 06:48:46;;;;;;;14.13;3.83;;;5.60;99.90;;;;;;5108417;27;20061;-72
2023/01/10 06:51:14;;;;;;;21.23;3.97;;;5.60;99.90;;;;;;5108578;27;20088;-71
2023/01/10 06:53:40;;;;;;;11.45;4.15;;;5.50;99.90;;;;;;5110970;27;20057;-72
2023/01/10 06:56:07;;;;;;;17.15;4.10;;;5.50;99.90;;;;;;5095196;28;20688;-70
2023/01/10 06:58:33;;;;;;;19.48;4.00;;;5.50;99.90;;;;;;5110611;27;20364;-71
2023/01/10 07:01:04;;;;;;;15.48;4.00;;;5.50;99.90;;;;;;5102327;27;20051;-71
2023/01/10 07:03:29;;;;;;;21.08;4.40;;;5.50;99.90;;;;;;5108353;27;20028;-72
2023/01/10 07:05:58;;;;;;;19.17;5.03;;;5.60;99.90;;;;;;5094793;28;20034;-72
2023/01/10 07:08:24;;;;;;;12.50;4.40;;;5.60;99.90;;;;;;5088798;27;20032;-71
2023/01/10 07:10:50;;;;;;;21.50;3.92;;;5.60;99.90;;;;;;5094417;27;21101;-71
2023/01/10 07:13:16;;;;;;;20.85;4.43;;;5.60;99.90;;;;;;5069533;27;20031;-71
2023/01/10 07:15:41;;;;;;;13.40;4.40;;;5.60;99.90;;;;;;5087828;27;20590;-71
2023/01/10 07:18:07;;;;;;;21.60;3.97;;;5.60;99.90;;;;;;5066403;28;20135;-72
2023/01/10 07:20:33;;;;;;;19.02;4.70;;;5.60;99.90;;;;;;5086403;28;20024;-79
2023/01/10 07:22:59;;;;;;;15.70;5.07;;;5.70;99.90;;;;;;5066567;28;20028;-72
2023/01/10 07:25:27;;;;;;;20.58;4.32;;;5.70;99.90;;;;;;5046476;28;20040;-70
2023/01/10 07:27:54;;;;;;;17.35;4.78;;;5.70;99.90;;;;;;5086742;27;20063;-70
2023/01/10 07:30:21;;;;;;;20.05;4.55;;;5.60;99.90;;;;;;5065452;28;20065;-72
2023/01/10 07:32:57;;;;;;;19.63;5.20;;;5.60;99.90;;;;;;5078759;27;20040;-70
2023/01/10 07:35:24;;;;;;;17.33;4.85;;;5.60;99.90;;;;;;5062239;28;20027;-71
2023/01/10 07:37:50;;;;;;;20.63;5.10;;;5.60;99.90;;;;;;5089239;27;20034;-71
2023/01/10 07:40:16;;;;;;;19.98;4.90;;;5.70;99.90;;;;;;5064557;28;20051;-72
2023/01/10 07:42:41;;;;;;;15.60;5.22;;;5.70;99.90;;;;;;5079689;28;20050;-71
2023/01/10 07:45:08;;;;;;;16.15;4.38;;;5.70;99.90;;;;;;5068862;28;20123;-74
2023/01/10 07:47:34;;;;;;;22.33;5.72;;;5.70;99.90;;;;;;5080306;28;21553;-72
2023/01/10 07:49:59;;;;;;;18.35;5.35;;;5.80;99.90;;;;;;5080341;28;20035;-71
2023/01/10 07:52:25;;;;;;;18.75;5.30;;;5.80;99.90;;;;;;5063832;28;20032;-71
2023/01/10 07:54:52;;;;;;;21.00;5.35;;;5.70;99.90;;;;;;5109427;28;20399;-71
2023/01/10 07:57:18;;;;;;;20.80;5.47;;;5.80;99.90;;;;;;5090797;28;20442;-71
2023/01/10 07:59:44;;;;;;;15.65;4.63;;;5.80;99.90;;;;;;5095437;28;20023;-72
2023/01/10 08:02:10;;;;;;;29.30;5.97;;;5.80;99.90;;;;;;5102659;27;20586;-72
2023/01/10 08:04:37;;;;;;;14.98;5.30;;;5.80;99.90;;;;;;5104770;28;20036;-73
2023/01/10 08:07:04;;;;;;;23.15;6.30;;;5.90;99.90;;;;;;5108295;28;20031;-72
2023/01/10 08:09:30;;;;;;;18.65;5.15;;;5.80;99.90;;;;;;5101557;28;20055;-73
2023/01/10 08:11:57;;;;;;;23.77;5.53;;;5.90;99.90;;;;;;5090010;28;20058;-73
2023/01/10 08:14:23;;;;;;;21.83;5.43;;;6.30;99.90;;;;;;5104513;27;20047;-73
2023/01/10 08:16:48;;;;;;;25.45;6.60;;;6.10;99.90;;;;;;5090285;28;20415;-72
2023/01/10 08:19:16;;;;;;;19.42;5.90;;;6.00;99.90;;;;;;5085761;28;20093;-71
2023/01/10 08:21:43;;;;;;;18.40;6.15;;;6.00;99.90;;;;;;5088500;28;20028;-71
2023/01/10 08:24:09;;;;;;;22.75;5.90;;;6.00;99.90;;;;;;5086989;28;20028;-71
2023/01/10 08:26:35;;;;;;;19.42;5.45;;;6.00;99.90;;;;;;5085390;28;20027;-71
2023/01/10 08:29:00;;;;;;;24.55;5.93;;;6.00;99.90;;;;;;5107047;27;20040;-71
2023/01/10 08:31:26;;;;;;;27.42;6.43;;;6.00;99.90;;;;;;5086416;28;20107;-71
2023/01/10 08:33:52;;;;;;;25.05;6.95;;;6.00;99.90;;;;;;5071646;28;20031;-71
2023/01/10 08:36:20;;;;;;;18.75;6.10;;;6.00;99.90;;;;;;5107643;27;20055;-72
2023/01/10 08:38:47;;;;;;;19.15;6.40;;;6.00;99.90;;;;;;5088067;28;20032;-72
2023/01/10 08:41:13;;;;;;;18.13;5.60;;;6.00;99.90;;;;;;5106427;27;20015;-72
2023/01/10 08:43:39;;;;;;;20.17;6.28;;;6.00;99.90;;;;;;5105628;28;20027;-72
2023/01/10 08:46:06;;;;;;;17.02;6.05;;;6.00;99.90;;;;;;5086490;28;20039;-71
2023/01/10 08:48:31;;;;;;;19.25;6.45;;;6.10;99.90;;;;;;5081030;28;20035;-72
2023/01/10 08:50:58;;;;;;;19.02;5.43;;;6.10;99.90;;;;;;5106364;28;20452;-72
2023/01/10 08:53:25;;;;;;;19.38;6.13;;;6.10;99.90;;;;;;5106209;28;20818;-72
2023/01/10 08:55:51;;;;;;;17.15;6.05;;;6.10;99.90;;;;;;5081842;28;20873;-72
2023/01/10 08:58:17;;;;;;;20.63;6.35;;;6.20;99.90;;;;;;5088757;28;20099;-72
2023/01/10 09:00:43;;;;;;;22.23;5.97;;;6.20;99.90;;;;;;5088976;28;20073;-71
2023/01/10 09:03:09;;;;;;;18.75;6.60;;;6.20;99.90;;;;;;5089398;28;20030;-72
2023/01/10 09:05:35;;;;;;;23.45;7.13;;;6.20;99.90;;;;;;5086814;28;20032;-72
2023/01/10 09:08:02;;;;;;;23.75;6.72;;;6.20;99.90;;;;;;5088205;28;20043;-73
2023/01/10 09:10:29;;;;;;;26.83;8.38;;;6.20;99.90;;;;;;5101894;27;20545;-74
2023/01/10 09:12:58;;;;;;;29.27;6.78;;;6.20;99.90;;;;;;5102016;28;20023;-72
2023/01/10 09:15:32;;;;;;;19.02;7.80;;;6.20;99.90;;;;;;5086031;28;20093;-71
2023/01/10 09:18:01;;;;;;;20.58;7.60;;;6.20;99.90;;;;;;5086033;28;20024;-71
2023/01/10 09:20:29;;;;;;;22.33;7.68;;;6.20;99.90;;;;;;5111377;28;20080;-72
2023/01/10 09:22:55;;;;;;;17.58;6.78;;;6.20;99.90;;;;;;5097671;27;20046;-73
2023/01/10 09:25:22;;;;;;;16.75;6.78;;;6.20;99.90;;;;;;5102949;28;20062;-72
2023/01/10 09:27:56;;;;;;;22.17;7.45;;;6.20;99.90;;;;;;5085336;27;20433;-72
2023/01/10 09:30:22;;;;;;;19.27;7.72;;;6.20;99.90;;;;;;5068580;28;21347;-72
2023/01/10 09:32:52;;;;;;;22.17;7.03;;;6.20;99.90;;;;;;5102724;27;20032;-71
2023/01/10 09:35:18;;;;;;;20.67;7.60;;;6.10;99.90;;;;;;5104332;27;20049;-72
2023/01/10 09:37:45;;;;;;;25.42;7.88;;;6.10;99.90;;;;;;5089221;28;20102;-73
2023/01/10 09:40:18;;;;;;;24.95;8.00;;;6.10;99.90;;;;;;5087371;28;20028;-72
2023/01/10 09:43:06;;;;;;;25.90;8.15;;;6.20;99.90;;;;;;5085346;28;20024;-72
2023/01/10 09:45:43;;;;;;;20.42;7.78;;;6.30;99.90;;;;;;5101172;27;20511;-73
2023/01/10 09:48:27;;;;;;;18.17;7.00;;;6.30;99.90;;;;;;5088609;28;20031;-73
2023/01/10 09:51:11;;;;;;;18.20;7.13;;;6.30;99.90;;;;;;5084233;28;20028;-73
2023/01/10 09:53:41;;;;;;;16.92;6.60;;;6.30;99.90;;;;;;5071584;28;20585;-72
2023/01/10 09:56:08;;;;;;;27.23;8.57;;;6.30;99.90;;;;;;5102967;27;20031;-73
2023/01/10 09:58:37;;;;;;;16.73;7.28;;;6.40;99.90;;;;;;5088222;28;20023;-73
2023/01/10 10:01:11;;;;;;;21.13;7.60;;;6.40;99.90;;;;;;5084722;28;20019;-72
2023/01/10 10:04:15;;;;;;;19.65;7.60;;;6.40;99.90;;;;;;5095255;27;20016;-73
2023/01/10 10:06:41;;;;;;;21.48;8.15;;;6.50;99.90;;;;;;5087708;28;20562;-73
2023/01/10 10:09:14;;;;;;;24.52;8.20;;;6.50;99.90;;;;;;5082747;28;20097;-72
2023/01/10 10:11:49;;;;;;;25.55;7.32;;;6.50;99.90;;;;;;5105505;28;20100;-71
2023/01/10 10:14:37;;;;;;;20.88;8.02;;;6.50;99.90;;;;;;5084120;28;20117;-71
2023/01/10 10:17:26;;;;;;;23.17;7.80;;;6.60;99.90;;;;;;5084831;28;20039;-71
2023/01/10 10:19:58;;;;;;;19.83;7.45;;;6.50;99.90;;;;;;5083130;28;20035;-71
2023/01/10 10:22:36;;;;;;;22.50;8.40;;;6.60;99.90;;;;;;5102581;28;20126;-71
2023/01/10 10:25:17;;;;;;;21.92;8.73;;;6.50;99.90;;;;;;5065470;28;20391;-71
2023/01/10 10:27:58;;;;;;;;;;;6.60;99.90;;;;;;5083823;28;20118;-71
2023/01/10 10:30:32;;;;;;;23.90;8.40;;;6.60;99.90;;;;;;5105772;28;19908;-72
2023/01/10 10:33:12;;;;;;;27.00;9.10;;;6.50;99.90;;;;;;5103676;28;20031;-71
2023/01/10 10:35:55;;;;;;;22.13;8.63;;;6.50;99.90;;;;;;5068142;28;20042;-71
2023/01/10 10:38:30;;;;;;;27.25;9.02;;;6.50;99.90;;;;;;5086808;28;20055;-71
2023/01/10 10:40:58;;;;;;;24.80;9.90;;;6.50;99.90;;;;;;5101953;28;20015;-71
2023/01/10 10:43:30;;;;;;;20.15;10.32;;;6.50;99.90;;;;;;5060969;28;20023;-71
2023/01/10 10:46:09;;;;;;;28.25;10.93;;;6.50;99.90;;;;;;5101445;28;20024;-71
2023/01/10 10:48:52;;;;;;;25.70;9.55;;;6.50;99.90;;;;;;5102394;28;20035;-71
2023/01/10 10:51:33;;;;;;;25.80;9.80;;;6.50;99.90;;;;;;5084675;28;20027;-71
2023/01/10 10:54:00;;;;;;;21.45;10.95;;;6.50;99.90;;;;;;5098963;28;20063;-72
2023/01/10 10:56:26;;;;;;;25.48;10.02;;;6.50;99.90;;;;;;5085865;28;20613;-71
2023/01/10 10:58:55;;;;;;;24.27;10.38;;;6.50;99.90;;;;;;5091394;27;20024;-72
2023/01/10 11:01:22;;;;;;;22.25;10.10;;;6.50;99.90;;;;;;5105656;27;20386;-71
2023/01/10 11:03:58;;;;;;;28.42;10.82;;;6.50;99.90;;;;;;5115033;27;20020;-71
2023/01/10 11:06:26;;;;;;;23.50;9.55;;;6.50;99.90;;;;;;5088240;27;20036;-72
2023/01/10 11:08:56;;;;;;;26.13;11.00;;;6.50;99.90;;;;;;5082936;28;20028;-72
2023/01/10 11:11:30;;;;;;;21.55;10.13;;;6.50;99.90;;;;;;5088212;27;20027;-71
2023/01/10 11:13:59;;;;;;;26.33;10.00;;;6.60;99.90;;;;;;5091564;27;20028;-72
2023/01/10 11:16:25;;;;;;;24.98;10.45;;;6.60;99.90;;;;;;5108066;27;20020;-72
2023/01/10 11:19:18;;;;;;;23.23;10.25;;;6.60;99.90;;;;;;5106196;27;20093;-72
2023/01/10 11:21:56;;;;;;;28.80;10.77;;;6.60;99.90;;;;;;5099014;27;20040;-73
2023/01/10 11:24:34;;;;;;;26.95;10.13;;;6.60;99.90;;;;;;5102804;27;20049;-71
2023/01/10 11:27:14;;;;;;;27.20;9.75;;;6.60;99.90;;;;;;5088481;27;20055;-71
2023/01/10 11:30:07;;;;;;;21.55;9.20;;;6.60;99.90;;;;;;5083015;28;20118;-71
2023/01/10 11:32:37;;;;;;;22.35;9.40;;;6.60;99.90;;;;;;5091458;27;20085;-72
2023/01/10 11:35:08;;;;;;;22.40;9.90;;;6.60;99.90;;;;;;5106112;27;20037;-71
2023/01/10 11:37:35;;;;;;;26.60;9.98;;;6.70;99.90;;;;;;5062764;28;20460;-71
2023/01/10 11:40:24;;;;;;;26.55;10.00;;;6.70;99.90;;;;;;5083883;28;20407;-71
2023/01/10 11:42:56;;;;;;;22.55;9.27;;;6.70;99.90;;;;;;5083491;28;20226;-71
2023/01/10 11:45:23;;;;;;;25.08;9.75;;;6.70;99.90;;;;;;5089426;27;20376;-71
2023/01/10 11:47:58;;;;;;;28.42;9.43;;;6.70;99.90;;;;;;5085957;28;20035;-72
2023/01/10 11:50:27;;;;;;;32.97;10.15;;;6.70;99.90;;;;;;5083709;28;20590;-72
2023/01/10 11:52:54;;;;;;;26.45;9.35;;;6.70;99.90;;;;;;5106182;27;20032;-71
2023/01/10 11:55:26;;;;;;;22.23;9.50;;;6.70;99.90;;;;;;5081496;27;20363;-72
2023/01/10 11:58:11;;;;;;;21.55;9.27;;;6.80;99.90;;;;;;5102353;27;20030;-71
2023/01/10 12:00:41;;;;;;;29.52;9.63;;;6.80;99.90;;;;;;5070917;28;20156;-71
2023/01/10 12:03:28;;;;;;;33.07;10.43;;;6.80;99.90;;;;;;5080375;28;20516;-72
2023/01/10 12:06:04;;;;;;;24.65;9.73;;;6.80;99.90;;;;;;5102801;27;20059;-71
2023/01/10 12:08:32;;;;;;;28.63;9.27;;;6.80;99.90;;;;;;5104711;27;20508;-72
2023/01/10 12:11:18;;;;;;;24.58;9.38;;;6.80;99.90;;;;;;5102836;27;20035;-71
2023/01/10 12:13:47;;;;;;;20.67;9.40;;;6.80;99.90;;;;;;5081499;28;20042;-72
2023/01/10 12:16:17;;;;;;;25.17;9.18;;;6.90;99.90;;;;;;5081187;28;20046;-72
2023/01/10 12:18:43;;;;;;;32.00;10.27;;;6.90;99.90;;;;;;5084035;28;20121;-72
2023/01/10 12:21:11;;;;;;;24.63;11.00;;;6.90;99.90;;;;;;5082133;27;20047;-71
2023/01/10 12:23:40;;;;;;;24.65;10.60;;;7.00;99.90;;;;;;5103657;27;20046;-72
2023/01/10 12:26:08;;;;;;;32.42;11.00;;;7.00;99.90;;;;;;5084235;28;20027;-72
2023/01/10 12:28:35;;;;;;;22.40;9.73;;;7.00;99.90;;;;;;5102163;27;20129;-72
2023/01/10 12:31:04;;;;;;;20.95;9.40;;;7.00;99.90;;;;;;5103800;27;20031;-72
2023/01/10 12:33:39;;;;;;;26.38;10.05;;;7.10;99.90;;;;;;5069564;28;20889;-72
2023/01/10 12:36:14;;;;;;;21.13;9.68;;;7.10;99.90;;;;;;5099930;28;20461;-72
2023/01/10 12:39:02;;;;;;;26.60;11.05;;;7.10;99.90;;;;;;5101977;27;20027;-72
2023/01/10 12:44:24;;;;;;;24.55;10.88;;;7.20;99.90;;;;;;5107080;27;20543;-72
2023/01/10 12:46:56;;;;;;;28.33;11.75;;;7.20;99.90;;;;;;5111268;27;20027;-72
2023/01/10 12:49:29;;;;;;;30.17;12.45;;;7.20;99.90;;;;;;5081996;27;20034;-71
2023/01/10 12:51:59;;;;;;;30.60;12.13;;;7.20;99.90;;;;;;5086758;28;20490;-72
2023/01/10 12:54:29;;;;;;;24.83;10.50;;;7.20;99.90;;;;;;5102942;27;20124;-72
2023/01/10 12:56:59;;;;;;;26.60;10.77;;;7.20;99.90;;;;;;5104201;27;20114;-71
2023/01/10 12:59:38;;;;;;;25.77;11.43;;;7.20;99.90;;;;;;5064367;27;20424;-71
2023/01/10 13:02:13;;;;;;;18.85;10.07;;;7.20;99.90;;;;;;5101315;27;20023;-71
2023/01/10 13:04:41;;;;;;;25.35;11.45;;;7.20;99.90;;;;;;5085951;28;20024;-71
2023/01/10 13:07:10;;;;;;;23.80;11.25;;;7.20;99.90;;;;;;5098634;27;20072;-71
2023/01/10 13:09:38;;;;;;;24.50;10.40;;;7.20;99.90;;;;;;5104369;27;20491;-71
2023/01/10 13:12:17;;;;;;;18.77;8.77;;;7.20;99.90;;;;;;5066210;28;20055;-71